Terminal Aerodrome Forecast
Issued by NWS

Home | Current Version | Previous Version | Text Only | Print | Product List | Glossary On
Versions: 1 2 3 4 5 6 7 8 9 10 11 12 13
000
FTUS44 KOHX 231100
TAFCKV
TAF
KCKV 231132Z 2312/2412 14006KT P6SM VCSH OVC025
     FM231600 13013G23KT 3SM -SHRA OVC007
     FM232000 16013G23KT 2SM -RA VCTS OVC006CB
     FM240000 18012G23KT 3SM -RA BR BKN007 OVC011
     FM240200 18014G26KT 5SM -DZ SCT007 OVC011
      TEMPO 2408/2412 2SM -DZ BKN007 OVC011=

USA.gov is the U.S. government's official web portal to all federal, state and local government web resources and services.